< < Back
Terminal Aerodrome Forecast


Current Version              Previous Versions:   1  2  3  4  5  6  7  8  9  

Terminal Aerodrome Forecast

838
FTUS44 KOHX 230500
TAFBNA
TAF
KBNA 230522Z 2306/2406 15007KT P6SM OVC035
     FM231000 15008KT P6SM VCSH OVC025
     FM231500 14015G25KT 4SM -SHRA OVC009
     FM232000 15012G22KT 2SM -RA VCTS OVC007CB
     FM240000 18013G23KT 5SM -DZ BR BKN005 OVC020=



Latest METAR

799
SAUS70 KWBC 230700 RRB
MTRBNA
METAR KBNA 230653Z 15007KT 10SM FEW027 BKN042 12/03 A3003 RMK AO2 SLP167
T01220028


USA.gov is the U.S. government's official web portal to all federal, state and local government web resources and services.